Shreveport Regional Airport
KSHV : now visible

Aeroporto :











RITROVATECI SU...

 
LOGIN :

Iscrizione | Disclaimer

   EN    FR    IT 

 









Sommario :    VFR   VFR Marginale   IFR   IFR Intensivo   IFR Molto Intensivo
Visibilità : 
Base nubi : 
>= 8 km
>= 3000ft
5 / 8 km
1000 / 3000 ft
1500m / 5 km
500 / 1000 ft
800 / 1500m
200 / 500 ft
< 800m
< 200 ft
Simboli :   Temporali  Nebbia  Neve Forte  Precipitazioni Forti  Vento > 20 kt







- Altitudine del aeroporto : 258 ft
- Codice IATA : SHV


KSHV - Shreveport Regional

METARs OBSOLETI :
  • 221856Z VRB05KT 10SM FEW030 BKN280 25/14 A3010 RMK AO2 SLP192 T02500139

TAF KSHV
Valido dal 22 a 18 ore il 23 a 18 ore UTC


221720Z 2218/2318 19010KT P6SM FEW035 BKN250
FM230000 17004KT P6SM SCT040 BKN250
FM231400 17005KT P6SM BKN015 OVC150
FM231700 18008KT P6SM BKN035
FIR KZFW / America del Nord



MetMap, La meteo Aeronautica in un colpo d'occhio ! - Copyright ORBIFLY Dicembre 2007 - Disclaimer

ORBIFLY MET'MAP TEAM :

Programmazione e sviluppo : Alexandra Zaïnal
Concezione e sviluppo : Baudouin d'Aumeries
Co-Programmazione e sviluppo : Marc-Olivier Méhu
Supporto tecnico e logistico : Manuel Goepfert
Aiuto per la traduzione : Arnaldo La Scala

Contatto : metmap@orbifly.com




FONTI E CREDITI :

   NOAA       Earth
Advisory